Time;durP1;ratioP1;P1;durP2;ratioP2;P2;SDS_P1;SDS_P2;PMS_P1;PMS_P2;Temp;Humidity;BMP_temperature;BMP_pressure;BME280_temperature;BME280_humidity;BME280_pressure;Samples;Min_cycle;Max_cycle;Signal;HPM_P1;HPM_P2
2023/07/17 00:01:53;;;;;;;4.43;2.63;;;23.20;71.80;;;;;;5081344;28;20669;-70
2023/07/17 00:04:20;;;;;;;3.47;2.77;;;23.20;72.00;;;;;;5089314;28;20807;-71
2023/07/17 00:06:48;;;;;;;5.70;3.00;;;23.10;72.10;;;;;;5080702;28;20207;-71
2023/07/17 00:09:15;;;;;;;4.40;3.30;;;23.10;72.40;;;;;;5089935;28;20230;-72
2023/07/17 00:11:42;;;;;;;4.43;3.13;;;23.10;72.50;;;;;;5085050;28;20201;-71
2023/07/17 00:14:09;;;;;;;5.73;2.83;;;23.00;72.40;;;;;;5079870;28;20198;-73
2023/07/17 00:16:36;;;;;;;4.27;3.17;;;22.90;72.30;;;;;;5075877;28;20311;-71
2023/07/17 00:19:03;;;;;;;3.60;2.97;;;22.80;72.30;;;;;;5087012;28;20255;-72
2023/07/17 00:21:30;;;;;;;4.73;3.10;;;22.70;72.70;;;;;;5090917;28;20228;-73
2023/07/17 00:23:58;;;;;;;3.73;2.80;;;22.50;73.00;;;;;;5084366;28;20292;-71
2023/07/17 00:26:25;;;;;;;3.20;2.80;;;22.40;73.40;;;;;;5070910;28;20288;-73
2023/07/17 00:28:56;;;;;;;6.00;3.80;;;22.40;73.60;;;;;;5070766;28;20213;-72
2023/07/17 00:31:23;;;;;;;5.63;3.00;;;22.30;73.90;;;;;;5071187;28;20205;-72
2023/07/17 00:33:50;;;;;;;4.43;2.63;;;22.40;73.90;;;;;;5082223;28;20311;-72
2023/07/17 00:36:17;;;;;;;4.87;2.70;;;22.40;74.70;;;;;;5090424;28;20228;-72
2023/07/17 00:38:44;;;;;;;3.87;2.80;;;22.40;74.00;;;;;;5090926;28;20292;-72
2023/07/17 00:41:12;;;;;;;3.60;2.90;;;22.40;74.00;;;;;;5090759;28;20252;-72
2023/07/17 00:43:39;;;;;;;3.13;2.63;;;22.50;74.10;;;;;;5083854;28;20228;-72
2023/07/17 00:46:06;;;;;;;3.73;2.80;;;22.50;73.90;;;;;;5089778;28;20275;-72
2023/07/17 00:48:33;;;;;;;3.33;2.87;;;22.50;73.90;;;;;;5089993;28;20554;-72
2023/07/17 00:51:01;;;;;;;4.87;2.73;;;22.50;73.90;;;;;;5089562;28;20201;-72
2023/07/17 00:53:28;;;;;;;4.30;2.70;;;22.50;73.80;;;;;;5083313;28;20220;-72
2023/07/17 00:55:55;;;;;;;7.53;3.80;;;22.60;73.70;;;;;;5090830;28;20648;-72
2023/07/17 00:58:23;;;;;;;3.27;2.83;;;22.70;73.70;;;;;;5089313;28;20220;-72
2023/07/17 01:00:50;;;;;;;3.00;2.57;;;22.60;73.80;;;;;;5086557;28;20327;-72
2023/07/17 01:03:17;;;;;;;5.30;2.63;;;22.60;74.90;;;;;;5086506;28;20197;-72
2023/07/17 01:05:44;;;;;;;4.13;2.47;;;22.60;73.80;;;;;;5090839;28;20197;-72
2023/07/17 01:08:11;;;;;;;3.37;2.97;;;22.60;73.60;;;;;;5090128;28;20227;-72
2023/07/17 01:10:37;;;;;;;5.13;2.50;;;22.60;73.70;;;;;;5090816;28;20202;-72
2023/07/17 01:13:04;;;;;;;5.47;3.23;;;22.60;73.70;;;;;;5082035;28;20311;-72
2023/07/17 01:15:33;;;;;;;4.00;2.83;;;22.60;73.80;;;;;;5078048;28;20212;-72
2023/07/17 01:18:00;;;;;;;3.20;2.60;;;22.60;73.70;;;;;;5094856;28;20311;-72
2023/07/17 01:20:27;;;;;;;3.33;3.03;;;22.60;73.70;;;;;;5093262;28;20307;-72
2023/07/17 01:23:00;;;;;;;4.23;2.60;;;22.60;73.90;;;;;;5083901;28;20287;-72
2023/07/17 01:25:27;;;;;;;2.67;2.47;;;22.50;74.20;;;;;;5082811;28;20277;-72
2023/07/17 01:27:54;;;;;;;4.27;3.07;;;22.50;73.90;;;;;;5073127;28;20474;-72
2023/07/17 01:30:21;;;;;;;3.90;2.53;;;22.60;73.90;;;;;;5075086;28;20295;-72
2023/07/17 01:32:48;;;;;;;3.77;3.00;;;22.50;73.80;;;;;;5094990;28;20323;-72
2023/07/17 01:35:15;;;;;;;4.10;2.70;;;22.50;73.80;;;;;;5075461;28;20274;-72
2023/07/17 01:37:42;;;;;;;2.60;2.23;;;22.50;73.80;;;;;;5083374;28;20710;-72
2023/07/17 01:40:13;;;;;;;3.87;3.00;;;22.50;73.90;;;;;;5095630;28;20241;-72
2023/07/17 01:42:40;;;;;;;3.50;2.87;;;22.60;74.30;;;;;;5091838;28;20275;-72
2023/07/17 01:45:08;;;;;;;4.03;2.90;;;22.50;74.10;;;;;;5091515;28;20224;-72
2023/07/17 01:47:35;;;;;;;2.80;2.50;;;22.50;74.40;;;;;;5094860;28;20196;-72
2023/07/17 01:50:02;;;;;;;3.27;2.70;;;22.50;74.10;;;;;;5095746;28;20259;-72
2023/07/17 01:52:29;;;;;;;3.67;2.83;;;22.50;74.20;;;;;;5093947;28;20240;-72
2023/07/17 01:54:56;;;;;;;3.33;2.87;;;22.50;74.10;;;;;;5089469;28;20690;-72
2023/07/17 01:57:25;;;;;;;5.07;3.00;;;22.50;74.20;;;;;;5095318;28;20208;-72
2023/07/17 01:59:52;;;;;;;3.07;2.80;;;22.50;74.40;;;;;;5095740;28;20205;-72
2023/07/17 02:02:19;;;;;;;7.07;2.90;;;22.50;74.20;;;;;;5090928;28;20230;-72
2023/07/17 02:04:45;;;;;;;2.97;2.67;;;22.50;74.30;;;;;;5094886;28;20292;-72
2023/07/17 02:07:12;;;;;;;4.80;3.37;;;22.50;74.30;;;;;;5095059;28;20299;-71
2023/07/17 02:09:39;;;;;;;3.23;2.77;;;22.50;74.50;;;;;;5094636;28;20216;-72
2023/07/17 02:12:07;;;;;;;3.67;2.70;;;22.50;74.70;;;;;;5094941;28;20192;-72
2023/07/17 02:14:35;;;;;;;3.30;2.80;;;22.50;74.80;;;;;;5086411;28;20316;-72
2023/07/17 02:17:02;;;;;;;4.07;2.87;;;22.40;74.70;;;;;;5092257;28;20231;-72
2023/07/17 02:19:29;;;;;;;3.73;2.90;;;22.40;74.90;;;;;;5094670;28;20317;-72
2023/07/17 02:21:56;;;;;;;5.17;2.90;;;22.40;75.20;;;;;;5094637;28;20287;-72
2023/07/17 02:24:22;;;;;;;4.67;2.80;;;22.20;75.00;;;;;;5084823;28;20201;-72
2023/07/17 02:26:49;;;;;;;2.93;2.50;;;22.40;75.20;;;;;;5091611;28;20830;-72
2023/07/17 02:29:16;;;;;;;3.90;2.83;;;22.40;75.20;;;;;;5094522;28;20196;-72
2023/07/17 02:31:45;;;;;;;4.33;3.00;;;22.40;75.00;;;;;;5093826;28;20220;-72
2023/07/17 02:34:11;;;;;;;4.70;2.77;;;22.40;75.10;;;;;;5092835;28;20232;-72
2023/07/17 02:36:39;;;;;;;4.63;2.60;;;22.40;75.00;;;;;;5094358;28;20312;-72
2023/07/17 02:39:05;;;;;;;4.80;2.57;;;22.40;75.20;;;;;;5093899;28;20228;-71
2023/07/17 02:41:32;;;;;;;2.83;2.40;;;22.40;75.20;;;;;;5094631;28;20297;-72
2023/07/17 02:43:59;;;;;;;3.50;3.07;;;22.40;75.10;;;;;;5076304;28;20315;-72
2023/07/17 02:46:26;;;;;;;2.90;2.40;;;22.40;75.20;;;;;;5090084;28;20287;-72
2023/07/17 02:48:54;;;;;;;4.17;2.70;;;22.40;75.30;;;;;;5093532;28;20284;-72
2023/07/17 02:51:21;;;;;;;3.97;2.63;;;22.40;75.20;;;;;;5094597;28;20216;-72
2023/07/17 02:53:48;;;;;;;3.83;3.00;;;22.40;75.20;;;;;;5093948;28;20228;-72
2023/07/17 02:56:15;;;;;;;3.80;2.93;;;22.30;75.30;;;;;;5094794;28;20557;-72
2023/07/17 02:58:43;;;;;;;4.50;2.67;;;22.30;75.50;;;;;;5077645;28;20217;-72
2023/07/17 03:01:10;;;;;;;3.00;2.57;;;22.30;75.70;;;;;;5074110;28;20205;-72
2023/07/17 03:03:37;;;;;;;3.30;2.90;;;22.30;75.70;;;;;;5088788;28;20201;-72
2023/07/17 03:06:06;;;;;;;2.67;2.43;;;22.30;75.70;;;;;;5094715;28;20243;-72
2023/07/17 03:08:33;;;;;;;3.10;2.63;;;22.30;76.00;;;;;;5077961;28;20669;-72
2023/07/17 03:11:03;;;;;;;6.73;2.80;;;22.40;75.80;;;;;;5092738;28;20224;-72
2023/07/17 03:13:30;;;;;;;4.70;3.23;;;22.40;76.10;;;;;;5093769;28;20193;-72
2023/07/17 03:15:59;;;;;;;3.53;3.00;;;22.50;75.80;;;;;;5073983;28;20307;-73
2023/07/17 03:18:26;;;;;;;3.30;2.87;;;22.50;76.00;;;;;;5091660;28;20223;-72
2023/07/17 03:20:53;;;;;;;3.93;3.17;;;22.50;75.90;;;;;;5093070;28;20572;-72
2023/07/17 03:23:21;;;;;;;5.13;3.17;;;22.50;75.80;;;;;;5092903;28;20251;-72
2023/07/17 03:25:48;;;;;;;4.40;2.77;;;22.50;75.60;;;;;;5093569;28;20216;-72
2023/07/17 03:28:15;;;;;;;3.03;2.73;;;22.50;75.70;;;;;;5088060;28;20720;-72
2023/07/17 03:30:42;;;;;;;3.50;2.93;;;22.50;75.60;;;;;;5076484;28;20585;-72
2023/07/17 03:33:09;;;;;;;4.93;3.00;;;22.50;75.40;;;;;;5087450;28;20291;-72
2023/07/17 03:35:36;;;;;;;5.27;2.90;;;22.40;75.20;;;;;;5092973;28;20319;-72
2023/07/17 03:38:03;;;;;;;3.77;3.00;;;22.50;75.30;;;;;;5091577;28;20215;-72
2023/07/17 03:40:32;;;;;;;4.17;2.70;;;22.40;75.50;;;;;;5084183;28;20728;-72
2023/07/17 03:42:58;;;;;;;3.53;2.87;;;22.40;75.50;;;;;;5080681;28;20291;-72
2023/07/17 03:45:25;;;;;;;3.77;2.60;;;22.40;75.50;;;;;;5093126;28;20200;-73
2023/07/17 03:47:52;;;;;;;3.57;2.80;;;22.30;75.70;;;;;;5091321;28;20227;-72
2023/07/17 03:50:19;;;;;;;3.33;2.83;;;22.20;75.80;;;;;;5092750;28;20228;-72
2023/07/17 03:52:46;;;;;;;6.27;3.10;;;22.20;76.20;;;;;;5093024;28;20250;-72
2023/07/17 03:55:14;;;;;;;4.30;3.30;;;22.10;76.40;;;;;;5093224;28;20283;-72
2023/07/17 03:57:43;;;;;;;3.93;2.83;;;22.10;76.70;;;;;;5091716;28;20273;-72
2023/07/17 04:00:14;;;;;;;4.17;2.90;;;22.10;76.60;;;;;;5092740;28;20541;-72
2023/07/17 04:02:41;;;;;;;4.53;2.60;;;22.20;76.80;;;;;;5090938;28;20199;-72
2023/07/17 04:05:09;;;;;;;4.07;3.03;;;22.20;76.70;;;;;;5085555;28;20223;-72
2023/07/17 04:07:36;;;;;;;3.77;2.90;;;22.20;76.60;;;;;;5091978;28;20281;-72
2023/07/17 04:10:03;;;;;;;4.13;3.00;;;22.20;76.50;;;;;;5092024;28;20731;-72
2023/07/17 04:12:30;;;;;;;3.50;2.60;;;22.30;76.70;;;;;;5093099;28;20564;-72
2023/07/17 04:14:58;;;;;;;4.03;3.03;;;22.30;76.40;;;;;;5091996;28;20213;-72
2023/07/17 04:17:25;;;;;;;3.90;2.73;;;22.20;76.10;;;;;;5073283;28;20233;-72
2023/07/17 04:19:52;;;;;;;4.93;2.87;;;22.20;76.20;;;;;;5072683;28;20304;-72
2023/07/17 04:22:19;;;;;;;4.37;2.80;;;22.20;76.20;;;;;;5072789;28;20236;-73
2023/07/17 04:24:46;;;;;;;4.23;2.67;;;22.20;76.20;;;;;;5072595;28;20287;-72
2023/07/17 04:27:13;;;;;;;5.03;3.10;;;22.30;76.30;;;;;;5074665;28;20324;-72
2023/07/17 04:29:41;;;;;;;4.33;2.90;;;22.30;76.20;;;;;;5092798;28;20210;-71
2023/07/17 04:32:10;;;;;;;5.53;2.93;;;22.30;75.90;;;;;;5092090;28;20220;-72
2023/07/17 04:34:37;;;;;;;4.27;2.70;;;22.30;76.10;;;;;;5092501;28;20235;-72
2023/07/17 04:37:04;;;;;;;3.73;2.87;;;22.40;76.20;;;;;;5091361;28;20589;-72
2023/07/17 04:39:31;;;;;;;5.87;3.00;;;22.40;76.20;;;;;;5083271;28;20229;-72
2023/07/17 04:41:58;;;;;;;3.23;2.77;;;22.50;76.20;;;;;;5088554;28;20281;-72
2023/07/17 04:44:25;;;;;;;5.77;3.00;;;22.50;76.20;;;;;;5091637;28;20255;-72
2023/07/17 04:46:52;;;;;;;3.83;3.03;;;22.60;76.30;;;;;;5089802;28;20197;-72
2023/07/17 04:49:20;;;;;;;5.03;2.87;;;22.60;76.00;;;;;;5076355;28;20216;-72
2023/07/17 04:51:47;;;;;;;3.17;2.67;;;22.70;76.00;;;;;;5082768;28;20287;-72
2023/07/17 04:54:13;;;;;;;2.80;2.40;;;22.70;75.80;;;;;;5083877;28;20204;-72
2023/07/17 04:56:41;;;;;;;4.00;2.67;;;22.70;75.80;;;;;;5092319;28;20283;-72
2023/07/17 04:59:07;;;;;;;5.70;2.87;;;22.70;76.00;;;;;;5089122;28;20255;-72
2023/07/17 05:01:34;;;;;;;3.57;2.73;;;22.70;77.20;;;;;;5091419;28;20224;-72
2023/07/17 05:04:01;;;;;;;5.80;2.90;;;22.70;77.60;;;;;;5092026;28;20239;-72
2023/07/17 05:06:30;;;;;;;5.60;3.50;;;22.70;77.30;;;;;;5091465;28;20232;-72
2023/07/17 05:08:57;;;;;;;4.53;2.93;;;22.60;77.70;;;;;;5091175;28;20197;-72
2023/07/17 05:11:24;;;;;;;3.50;3.00;;;22.60;77.60;;;;;;5072925;28;20246;-72
2023/07/17 05:13:50;;;;;;;4.77;3.03;;;22.60;77.60;;;;;;5090123;28;20292;-72
2023/07/17 05:16:17;;;;;;;4.77;3.43;;;22.60;77.70;;;;;;5091500;28;20231;-72
2023/07/17 05:18:44;;;;;;;4.53;2.60;;;22.70;77.60;;;;;;5090807;28;20230;-72
2023/07/17 05:21:11;;;;;;;4.93;2.93;;;22.70;77.90;;;;;;5091550;28;20374;-72
2023/07/17 05:23:40;;;;;;;5.90;3.10;;;22.70;78.10;;;;;;5091995;28;20299;-72
2023/07/17 05:26:07;;;;;;;5.00;3.13;;;22.70;78.30;;;;;;5092065;28;20553;-72
2023/07/17 05:28:35;;;;;;;7.17;3.30;;;22.70;77.90;;;;;;5091112;28;20254;-72
2023/07/17 05:31:02;;;;;;;5.60;3.53;;;22.70;77.70;;;;;;5090789;28;20224;-72
2023/07/17 05:33:28;;;;;;;3.23;2.93;;;22.80;77.50;;;;;;5073580;28;20307;-72
2023/07/17 05:35:56;;;;;;;4.87;3.20;;;22.90;77.20;;;;;;5091543;28;20648;-72
2023/07/17 05:38:22;;;;;;;6.10;3.00;;;23.00;76.80;;;;;;5090833;28;20257;-72
2023/07/17 05:40:58;;;;;;;3.80;2.80;;;23.00;76.00;;;;;;5090715;28;20583;-72
2023/07/17 05:43:25;;;;;;;4.67;3.20;;;23.10;75.10;;;;;;5084071;28;20220;-72
2023/07/17 05:45:52;;;;;;;4.13;3.17;;;23.20;74.70;;;;;;5091728;28;20250;-72
2023/07/17 05:48:19;;;;;;;5.57;2.80;;;23.30;74.60;;;;;;5079361;28;20326;-71
2023/07/17 05:50:46;;;;;;;4.93;3.33;;;23.40;73.80;;;;;;5086135;28;20797;-72
2023/07/17 05:53:13;;;;;;;4.30;3.10;;;23.50;73.60;;;;;;5086423;28;20201;-72
2023/07/17 05:55:40;;;;;;;3.00;2.70;;;23.60;72.70;;;;;;5091430;28;20644;-72
2023/07/17 05:58:08;;;;;;;4.40;2.83;;;23.70;72.60;;;;;;5089179;28;20259;-71
2023/07/17 06:00:35;;;;;;;4.37;3.07;;;23.70;72.20;;;;;;5092105;28;20278;-71
2023/07/17 06:03:02;;;;;;;4.07;2.93;;;23.80;71.70;;;;;;5095005;28;20204;-71
2023/07/17 06:05:29;;;;;;;3.57;3.00;;;23.80;71.40;;;;;;5095196;28;20219;-72
2023/07/17 06:07:56;;;;;;;4.40;3.17;;;23.90;70.60;;;;;;5091749;28;20212;-72
2023/07/17 06:10:23;;;;;;;4.37;3.00;;;23.90;70.50;;;;;;5087841;28;20195;-72
2023/07/17 06:12:50;;;;;;;4.93;3.17;;;23.90;70.60;;;;;;5076204;28;20995;-72
2023/07/17 06:15:18;;;;;;;4.07;2.67;;;24.00;71.10;;;;;;5074595;28;20223;-72
2023/07/17 06:17:45;;;;;;;3.80;2.70;;;24.10;70.10;;;;;;5081644;28;20310;-72
2023/07/17 06:20:12;;;;;;;4.53;3.00;;;24.20;71.10;;;;;;5093685;28;20223;-72
2023/07/17 06:22:39;;;;;;;4.37;3.07;;;24.20;69.90;;;;;;5094683;28;20584;-71
2023/07/17 06:25:06;;;;;;;5.00;3.17;;;24.30;69.20;;;;;;5090094;28;20189;-71
2023/07/17 06:27:33;;;;;;;3.30;2.70;;;24.20;68.80;;;;;;5093306;28;20210;-71
2023/07/17 06:30:00;;;;;;;3.60;3.07;;;24.30;68.80;;;;;;5094916;28;20201;-71
2023/07/17 06:32:29;;;;;;;4.73;3.07;;;24.30;68.60;;;;;;5094752;28;20224;-71
2023/07/17 06:34:56;;;;;;;5.73;3.13;;;24.40;67.90;;;;;;5089205;28;20230;-72
2023/07/17 06:37:23;;;;;;;6.10;2.60;;;24.40;68.00;;;;;;5094254;28;20193;-71
2023/07/17 06:39:50;;;;;;;3.17;2.83;;;24.50;68.30;;;;;;5094446;28;20224;-71
2023/07/17 06:42:17;;;;;;;5.23;2.90;;;24.60;67.60;;;;;;5090591;28;20209;-72
2023/07/17 06:44:43;;;;;;;3.97;3.17;;;24.60;67.00;;;;;;5077163;28;20198;-72
2023/07/17 06:47:10;;;;;;;5.47;3.23;;;24.60;66.10;;;;;;5093885;28;20236;-72
2023/07/17 06:49:38;;;;;;;4.00;3.00;;;24.70;66.00;;;;;;5093766;28;20209;-72
2023/07/17 06:52:06;;;;;;;4.70;3.00;;;24.70;65.40;;;;;;5093741;28;20204;-72
2023/07/17 06:54:33;;;;;;;5.63;3.17;;;24.70;65.30;;;;;;5092995;28;20200;-72
2023/07/17 06:57:00;;;;;;;5.07;3.23;;;24.80;64.80;;;;;;5093422;28;20212;-72
2023/07/17 06:59:28;;;;;;;7.07;3.37;;;24.90;65.40;;;;;;5093526;28;20232;-72
2023/07/17 07:01:55;;;;;;;6.53;2.93;;;25.00;65.00;;;;;;5090555;28;20247;-71
2023/07/17 07:04:22;;;;;;;6.33;3.33;;;25.10;64.80;;;;;;5093496;28;20210;-72
2023/07/17 07:06:51;;;;;;;6.27;3.33;;;25.10;64.10;;;;;;5094050;28;20269;-72
2023/07/17 07:09:18;;;;;;;5.83;3.20;;;25.10;64.00;;;;;;5093564;28;20201;-72
2023/07/17 07:11:45;;;;;;;4.67;3.10;;;25.20;63.80;;;;;;5056782;28;20220;-72
2023/07/17 07:14:12;;;;;;;5.63;3.40;;;25.20;63.30;;;;;;5093105;28;20204;-71
2023/07/17 07:16:39;;;;;;;6.07;3.13;;;25.30;63.50;;;;;;5093640;28;20209;-72
2023/07/17 07:19:06;;;;;;;7.90;3.60;;;25.30;63.10;;;;;;5091033;28;20280;-72
2023/07/17 07:21:33;;;;;;;4.13;3.17;;;25.30;63.30;;;;;;5089747;28;20299;-72
2023/07/17 07:24:03;;;;;;;7.30;3.43;;;25.40;63.60;;;;;;5091368;28;20201;-72
2023/07/17 07:26:30;;;;;;;5.33;3.17;;;25.50;62.30;;;;;;5091358;28;20204;-72
2023/07/17 07:28:57;;;;;;;7.57;3.20;;;25.50;62.40;;;;;;5091521;28;20425;-72
2023/07/17 07:31:24;;;;;;;5.70;3.33;;;25.60;62.10;;;;;;5084281;28;20270;-72
2023/07/17 07:33:51;;;;;;;4.47;3.70;;;25.70;60.80;;;;;;5092687;28;20280;-71
2023/07/17 07:36:18;;;;;;;6.00;4.40;;;25.70;59.90;;;;;;5093068;28;20220;-72
2023/07/17 07:38:45;;;;;;;5.13;3.50;;;25.70;59.80;;;;;;5093227;28;20287;-72
2023/07/17 07:41:13;;;;;;;6.40;3.70;;;25.70;59.40;;;;;;5092446;28;20216;-72
2023/07/17 07:43:40;;;;;;;6.97;4.00;;;25.70;58.50;;;;;;5077562;28;20208;-71
2023/07/17 07:46:07;;;;;;;5.50;4.23;;;25.60;58.70;;;;;;5079388;28;20314;-72
2023/07/17 07:48:34;;;;;;;6.17;3.67;;;25.70;58.10;;;;;;5092778;28;20205;-72
2023/07/17 07:51:01;;;;;;;5.70;3.73;;;25.70;58.60;;;;;;5077527;28;20251;-71
2023/07/17 07:53:28;;;;;;;5.97;4.23;;;25.80;58.00;;;;;;5072288;28;20735;-72
2023/07/17 07:55:55;;;;;;;6.60;3.70;;;25.80;57.80;;;;;;5075833;28;20291;-71
2023/07/17 07:58:23;;;;;;;5.57;3.57;;;25.80;58.00;;;;;;5086921;28;20200;-72
2023/07/17 08:00:50;;;;;;;5.10;3.73;;;26.00;58.20;;;;;;5087748;28;20347;-71
2023/07/17 08:03:17;;;;;;;4.50;3.83;;;26.00;57.90;;;;;;5079814;28;20284;-72
2023/07/17 08:05:43;;;;;;;6.67;3.90;;;26.10;58.30;;;;;;5086965;28;20232;-72
2023/07/17 08:08:10;;;;;;;6.63;3.87;;;26.20;57.40;;;;;;5077171;28;20226;-71
2023/07/17 08:10:38;;;;;;;6.57;3.70;;;26.30;57.60;;;;;;5072055;28;20213;-72
2023/07/17 08:13:05;;;;;;;5.93;3.67;;;26.40;57.30;;;;;;5090424;28;20228;-72
2023/07/17 08:15:34;;;;;;;7.20;3.77;;;26.50;57.80;;;;;;5090996;28;20299;-70
2023/07/17 08:18:01;;;;;;;6.77;3.90;;;26.80;57.60;;;;;;5091225;28;20765;-70
2023/07/17 08:20:29;;;;;;;5.63;3.70;;;26.80;56.20;;;;;;5090298;28;20235;-70
2023/07/17 08:22:56;;;;;;;6.60;3.87;;;26.90;56.20;;;;;;5091525;28;20235;-70
2023/07/17 08:25:23;;;;;;;5.97;4.10;;;26.90;56.00;;;;;;5085766;28;20304;-71
2023/07/17 08:27:51;;;;;;;6.63;4.03;;;27.00;56.00;;;;;;5081594;28;20668;-70
2023/07/17 08:30:18;;;;;;;4.73;3.90;;;27.00;54.90;;;;;;5092153;28;20210;-70
2023/07/17 08:32:46;;;;;;;6.50;3.97;;;27.10;54.40;;;;;;5091637;28;20299;-70
2023/07/17 08:35:13;;;;;;;7.63;4.20;;;27.20;54.10;;;;;;5084179;28;20207;-70
2023/07/17 08:37:40;;;;;;;5.73;4.00;;;27.30;53.10;;;;;;5084050;28;20219;-70
2023/07/17 08:40:08;;;;;;;5.03;3.77;;;27.40;53.10;;;;;;5091200;28;20229;-70
2023/07/17 08:42:37;;;;;;;7.20;3.70;;;27.40;53.40;;;;;;5086017;28;20202;-70
2023/07/17 08:45:05;;;;;;;6.70;3.80;;;27.30;52.90;;;;;;5071032;28;20298;-70
2023/07/17 08:47:33;;;;;;;5.93;4.20;;;27.40;53.20;;;;;;5070805;28;20240;-70
2023/07/17 08:50:02;;;;;;;5.07;4.03;;;27.40;53.60;;;;;;5075458;28;20290;-70
2023/07/17 08:52:31;;;;;;;5.70;4.00;;;27.40;52.80;;;;;;5091594;28;20222;-71
2023/07/17 08:54:58;;;;;;;5.73;4.13;;;27.50;52.80;;;;;;5091481;28;20747;-71
2023/07/17 08:57:27;;;;;;;7.90;3.90;;;27.60;52.70;;;;;;5091533;28;20797;-70
2023/07/17 08:59:56;;;;;;;5.30;3.80;;;27.70;52.40;;;;;;5091688;28;20225;-71
2023/07/17 09:02:23;;;;;;;4.43;3.73;;;27.70;51.00;;;;;;5090714;28;20215;-70
2023/07/17 09:04:50;;;;;;;5.27;3.70;;;27.70;51.10;;;;;;5091657;28;20297;-70
2023/07/17 09:07:18;;;;;;;5.77;3.50;;;27.70;51.30;;;;;;5091522;28;20208;-71
2023/07/17 09:09:45;;;;;;;7.33;3.90;;;27.80;51.30;;;;;;5091237;28;20315;-70
2023/07/17 09:12:16;;;;;;;5.63;3.13;;;27.80;50.80;;;;;;5091292;28;20231;-70
2023/07/17 09:14:43;;;;;;;5.07;3.27;;;27.90;50.60;;;;;;5091553;28;20208;-69
2023/07/17 09:17:11;;;;;;;3.77;3.13;;;28.00;50.00;;;;;;5091115;28;20224;-68
2023/07/17 09:19:38;;;;;;;5.07;3.70;;;28.10;49.10;;;;;;5091611;28;20314;-71
2023/07/17 09:22:07;;;;;;;4.77;3.60;;;28.10;48.00;;;;;;5088751;28;20662;-70
2023/07/17 09:24:36;;;;;;;4.67;3.30;;;28.10;47.80;;;;;;5071231;28;20218;-68
2023/07/17 09:27:06;;;;;;;6.53;3.83;;;28.20;48.10;;;;;;5071032;28;20207;-71
2023/07/17 09:29:33;;;;;;;6.37;4.00;;;28.30;48.80;;;;;;5071262;28;20202;-71
2023/07/17 09:32:16;;;;;;;5.73;3.57;;;28.30;49.10;;;;;;5077007;28;20318;-69
2023/07/17 09:34:42;;;;;;;5.30;3.40;;;28.50;47.70;;;;;;5091812;28;20211;-69
2023/07/17 09:37:10;;;;;;;4.83;3.33;;;28.50;46.40;;;;;;5094940;28;20256;-70
2023/07/17 09:39:39;;;;;;;4.90;3.70;;;28.60;46.60;;;;;;5094994;28;20601;-70
2023/07/17 09:42:23;;;;;;;4.53;3.57;;;28.60;47.00;;;;;;5092899;28;20767;-70
2023/07/17 09:44:51;;;;;;;4.47;3.53;;;28.60;46.90;;;;;;5092822;28;20316;-70
2023/07/17 09:47:19;;;;;;;6.30;3.57;;;28.70;46.80;;;;;;5091285;28;20291;-69
2023/07/17 09:49:49;;;;;;;5.70;3.27;;;28.80;46.40;;;;;;5095071;28;20200;-70
2023/07/17 09:52:16;;;;;;;5.43;3.47;;;28.90;46.00;;;;;;5094830;28;20588;-70
2023/07/17 09:54:45;;;;;;;3.63;3.30;;;28.90;46.50;;;;;;5094756;28;20216;-70
2023/07/17 09:57:22;;;;;;;5.40;3.60;;;28.90;46.00;;;;;;5093915;28;20235;-70
2023/07/17 09:59:50;;;;;;;5.40;3.43;;;29.00;45.30;;;;;;5094565;28;20304;-70
2023/07/17 10:02:19;;;;;;;4.80;3.50;;;28.90;44.60;;;;;;5094148;28;20234;-70
2023/07/17 10:04:52;;;;;;;4.60;3.40;;;28.90;44.50;;;;;;5094606;28;20252;-71
2023/07/17 10:07:20;;;;;;;4.43;3.20;;;28.90;44.30;;;;;;5094388;28;20208;-71
2023/07/17 10:09:49;;;;;;;5.43;3.90;;;29.10;44.00;;;;;;5094120;28;20228;-69
2023/07/17 10:12:17;;;;;;;4.90;3.50;;;29.10;43.70;;;;;;5093976;28;20711;-69
2023/07/17 10:14:46;;;;;;;4.40;3.40;;;29.30;44.40;;;;;;5094384;28;20303;-69
2023/07/17 10:17:28;;;;;;;5.50;3.87;;;29.30;43.90;;;;;;5094347;28;20231;-71
2023/07/17 10:19:59;;;;;;;4.30;3.30;;;29.20;43.10;;;;;;5094565;28;20311;-71
2023/07/17 10:22:32;;;;;;;4.67;3.50;;;29.20;44.00;;;;;;5093294;28;20223;-70
2023/07/17 10:25:09;;;;;;;4.40;3.47;;;29.10;43.10;;;;;;5081493;28;20236;-70
2023/07/17 10:27:44;;;;;;;6.23;3.53;;;28.90;44.20;;;;;;5074291;28;20192;-70
2023/07/17 10:30:30;;;;;;;5.37;3.40;;;29.10;44.10;;;;;;5074202;28;20291;-70
2023/07/17 10:33:22;;;;;;;4.77;3.63;;;29.10;43.30;;;;;;5079154;28;20730;-70
2023/07/17 10:35:51;;;;;;;5.73;3.60;;;29.10;43.20;;;;;;5074564;28;20276;-70
2023/07/17 10:38:19;;;;;;;4.33;3.47;;;29.10;43.90;;;;;;5094159;28;20260;-70
2023/07/17 10:40:47;;;;;;;4.87;3.10;;;29.30;43.00;;;;;;5093833;28;20697;-70
2023/07/17 10:43:19;;;;;;;6.87;3.53;;;29.40;43.00;;;;;;5089301;28;20233;-70
2023/07/17 10:45:48;;;;;;;5.97;3.70;;;29.50;43.60;;;;;;5089294;28;20288;-70
2023/07/17 10:48:17;;;;;;;5.70;3.60;;;29.70;42.60;;;;;;5093306;28;20208;-70
2023/07/17 10:50:49;;;;;;;4.00;2.83;;;29.60;42.70;;;;;;5093917;28;20201;-69
2023/07/17 10:53:16;;;;;;;5.13;3.30;;;29.40;42.30;;;;;;5076712;28;20220;-70
2023/07/17 10:55:44;;;;;;;5.90;3.90;;;29.50;42.10;;;;;;5073113;28;20225;-70
2023/07/17 10:58:12;;;;;;;6.03;3.10;;;29.50;42.10;;;;;;5075763;28;20224;-70
2023/07/17 11:00:42;;;;;;;3.53;3.20;;;29.50;41.90;;;;;;5093762;28;20239;-70
2023/07/17 11:03:09;;;;;;;5.10;3.27;;;29.50;41.60;;;;;;5087502;28;20205;-70
2023/07/17 11:05:39;;;;;;;3.43;3.10;;;29.50;40.90;;;;;;5089095;28;20279;-70
2023/07/17 11:08:05;;;;;;;6.17;3.70;;;29.60;41.60;;;;;;5081255;28;20216;-70
2023/07/17 11:10:33;;;;;;;4.47;3.47;;;29.70;41.50;;;;;;5079037;28;20227;-70
2023/07/17 11:13:03;;;;;;;3.87;3.30;;;29.70;41.50;;;;;;5074201;28;20328;-70
2023/07/17 11:15:33;;;;;;;4.63;3.20;;;29.90;41.70;;;;;;5091945;28;20208;-70
2023/07/17 11:18:00;;;;;;;6.10;3.37;;;30.00;41.60;;;;;;5082397;28;20196;-70
2023/07/17 11:20:28;;;;;;;4.20;3.40;;;30.10;41.50;;;;;;5073111;28;20239;-70
2023/07/17 11:22:56;;;;;;;5.83;3.20;;;30.10;40.50;;;;;;5075497;28;20308;-70
2023/07/17 11:25:25;;;;;;;4.83;3.63;;;30.20;40.70;;;;;;5082751;28;20205;-70
2023/07/17 11:27:54;;;;;;;6.03;3.23;;;30.20;40.30;;;;;;5072627;28;20266;-70
2023/07/17 11:30:22;;;;;;;4.70;3.07;;;30.20;40.00;;;;;;5073961;28;20200;-70
2023/07/17 11:32:57;;;;;;;5.10;3.47;;;30.20;39.50;;;;;;5091214;28;20255;-70
2023/07/17 11:35:24;;;;;;;4.97;3.47;;;30.10;39.00;;;;;;5072425;28;20188;-70
2023/07/17 11:37:51;;;;;;;4.97;3.33;;;30.20;40.20;;;;;;5072850;28;20228;-70
2023/07/17 11:40:18;;;;;;;5.77;3.37;;;30.20;39.80;;;;;;5071960;28;20316;-70
2023/07/17 11:42:56;;;;;;;6.33;3.60;;;30.20;39.70;;;;;;5079708;28;20723;-70
2023/07/17 11:45:27;;;;;;;4.27;3.00;;;30.10;39.00;;;;;;5073366;28;20220;-70
2023/07/17 11:47:57;;;;;;;5.13;3.13;;;30.20;40.20;;;;;;5072855;28;20589;-70
2023/07/17 11:50:26;;;;;;;5.63;3.20;;;30.40;39.50;;;;;;5078509;28;20291;-70
2023/07/17 11:53:04;;;;;;;4.27;3.83;;;30.40;40.60;;;;;;5092028;28;20200;-70
2023/07/17 11:55:35;;;;;;;4.80;3.43;;;30.50;38.90;;;;;;5071579;28;20560;-70
2023/07/17 11:58:03;;;;;;;4.20;3.40;;;30.40;39.30;;;;;;5071619;28;20672;-69
2023/07/17 12:00:30;;;;;;;4.20;3.40;;;30.50;39.60;;;;;;5072145;28;20235;-70
2023/07/17 12:02:58;;;;;;;7.00;3.63;;;30.70;40.30;;;;;;5072624;28;20917;-70
2023/07/17 12:05:25;;;;;;;5.07;3.33;;;30.60;39.30;;;;;;5091946;28;20291;-70
2023/07/17 12:07:52;;;;;;;5.30;3.80;;;30.70;39.70;;;;;;5092248;28;20227;-70
2023/07/17 12:10:19;;;;;;;4.43;3.50;;;31.00;40.50;;;;;;5092134;28;20287;-70
2023/07/17 12:12:46;;;;;;;4.77;3.30;;;31.00;39.30;;;;;;5091847;28;20243;-70
2023/07/17 12:15:12;;;;;;;5.10;3.50;;;31.00;39.30;;;;;;5091683;28;20721;-70
2023/07/17 12:17:39;;;;;;;4.57;3.70;;;31.00;39.10;;;;;;5092303;28;20660;-70
2023/07/17 12:20:09;;;;;;;3.80;3.40;;;31.10;39.30;;;;;;5091771;28;20299;-70
2023/07/17 12:22:36;;;;;;;4.73;3.07;;;31.20;39.30;;;;;;5091974;28;20263;-70
2023/07/17 12:25:03;;;;;;;4.90;3.10;;;31.20;39.20;;;;;;5091664;28;20252;-70
2023/07/17 12:27:29;;;;;;;4.83;3.37;;;31.10;39.10;;;;;;5092183;28;20205;-70
2023/07/17 12:29:56;;;;;;;5.67;3.10;;;31.10;39.40;;;;;;5092128;28;20260;-70
2023/07/17 12:32:23;;;;;;;6.43;3.50;;;31.20;40.10;;;;;;5092069;28;20309;-70
2023/07/17 12:34:50;;;;;;;5.30;3.57;;;31.30;39.30;;;;;;5090936;28;20755;-70
2023/07/17 12:37:18;;;;;;;5.33;3.40;;;31.40;38.70;;;;;;5092084;28;20232;-70
2023/07/17 12:39:45;;;;;;;7.70;3.43;;;31.40;39.00;;;;;;5075111;28;20772;-70
2023/07/17 12:42:12;;;;;;;4.33;3.00;;;31.40;38.60;;;;;;5074719;28;20319;-70
2023/07/17 12:44:39;;;;;;;5.33;3.47;;;31.20;38.50;;;;;;5091661;28;20595;-70
2023/07/17 12:47:06;;;;;;;4.80;3.60;;;31.10;38.00;;;;;;5091153;28;20242;-70
2023/07/17 12:49:33;;;;;;;4.10;3.43;;;31.00;38.40;;;;;;5091754;28;20277;-70
2023/07/17 12:52:01;;;;;;;3.87;3.40;;;31.10;39.00;;;;;;5091199;28;20331;-70